Time;durP1;ratioP1;P1;durP2;ratioP2;P2;SDS_P1;SDS_P2;PMS_P1;PMS_P2;Temp;Humidity;BMP_temperature;BMP_pressure;BME280_temperature;BME280_humidity;BME280_pressure;Samples;Min_cycle;Max_cycle;Signal;HPM_P1;HPM_P2
2021/04/02 00:00:59;;;;;;;46.05;23.27;;;15.00;99.90;;;;;;5012922;28;20518;-85
2021/04/02 00:03:27;;;;;;;46.40;22.13;;;15.00;99.90;;;;;;5010444;28;20049;-86
2021/04/02 00:05:54;;;;;;;50.53;23.27;;;14.90;99.90;;;;;;5028251;28;20045;-85
2021/04/02 00:08:22;;;;;;;49.90;22.58;;;14.80;99.90;;;;;;5010536;28;20041;-85
2021/04/02 00:11:01;;;;;;;48.80;22.55;;;14.80;99.90;;;;;;4998411;28;20394;-85
2021/04/02 00:13:31;;;;;;;52.05;22.42;;;14.70;99.90;;;;;;5027814;28;20069;-85
2021/04/02 00:15:57;;;;;;;50.45;23.60;;;14.70;99.90;;;;;;5012003;28;20542;-85
2021/04/02 00:18:25;;;;;;;50.08;23.52;;;14.60;99.90;;;;;;5027685;28;20041;-85
2021/04/02 00:20:54;;;;;;;50.78;22.45;;;14.60;99.90;;;;;;5028719;28;20128;-85
2021/04/02 00:23:21;;;;;;;47.15;21.88;;;14.50;99.90;;;;;;5016353;28;20049;-85
2021/04/02 00:25:49;;;;;;;56.17;22.88;;;14.50;99.90;;;;;;5011713;28;20053;-85
2021/04/02 00:28:15;;;;;;;52.20;23.10;;;14.40;99.90;;;;;;5011545;28;20046;-85
2021/04/02 00:30:55;;;;;;;53.13;22.73;;;14.40;99.90;;;;;;5030196;28;20045;-85
2021/04/02 00:33:25;;;;;;;48.22;21.00;;;14.40;99.90;;;;;;5030726;28;20045;-85
2021/04/02 00:35:52;;;;;;;45.67;21.42;;;14.40;99.90;;;;;;5012250;28;20387;-85
2021/04/02 00:38:19;;;;;;;44.67;20.98;;;14.30;99.90;;;;;;5011034;28;20494;-85
2021/04/02 00:40:47;;;;;;;51.85;22.23;;;14.30;99.90;;;;;;5016785;28;20049;-85
2021/04/02 00:43:17;;;;;;;45.25;20.58;;;14.30;99.90;;;;;;5030310;28;20057;-85
2021/04/02 00:45:43;;;;;;;47.00;21.13;;;14.20;99.90;;;;;;5015974;28;20455;-85
2021/04/02 00:48:10;;;;;;;53.30;22.92;;;14.20;99.90;;;;;;5028639;28;20140;-85
2021/04/02 00:50:42;;;;;;;51.60;21.27;;;14.20;99.90;;;;;;5014688;28;20079;-85
2021/04/02 00:53:09;;;;;;;55.08;21.98;;;14.10;99.90;;;;;;5032268;28;20041;-86
2021/04/02 00:55:37;;;;;;;46.40;20.92;;;14.10;99.90;;;;;;5025217;28;20132;-85
2021/04/02 00:58:05;;;;;;;53.42;21.92;;;14.10;99.90;;;;;;5014563;28;20042;-86
2021/04/02 01:00:32;;;;;;;49.58;21.17;;;14.00;99.90;;;;;;5014717;28;20463;-85
2021/04/02 01:02:59;;;;;;;50.72;20.90;;;14.00;99.90;;;;;;5011356;28;20045;-85
2021/04/02 01:05:32;;;;;;;49.20;22.52;;;13.90;99.90;;;;;;5024385;28;20092;-85
2021/04/02 01:08:07;;;;;;;54.00;22.00;;;13.90;99.90;;;;;;5014209;28;20463;-85
2021/04/02 01:10:34;;;;;;;50.67;22.27;;;13.80;99.90;;;;;;5013798;28;20395;-85
2021/04/02 01:13:06;;;;;;;45.95;21.45;;;13.80;99.90;;;;;;5016087;28;20136;-85
2021/04/02 01:15:40;;;;;;;49.80;21.30;;;13.80;99.90;;;;;;5030303;28;20073;-85
2021/04/02 01:18:31;;;;;;;54.88;22.42;;;13.70;99.90;;;;;;5011876;28;20141;-85
2021/04/02 01:21:23;;;;;;;50.72;22.27;;;13.70;99.90;;;;;;5031009;28;20050;-85
2021/04/02 01:24:01;;;;;;;51.35;21.98;;;13.60;99.90;;;;;;5010404;28;20037;-85
2021/04/02 01:27:05;;;;;;;55.25;22.55;;;13.60;99.90;;;;;;5015644;28;20045;-85
2021/04/02 01:29:45;;;;;;;49.92;22.80;;;13.60;99.90;;;;;;5028730;28;20447;-84
2021/04/02 01:32:18;;;;;;;54.15;22.17;;;13.50;99.90;;;;;;5009877;28;20053;-85
2021/04/02 01:34:48;;;;;;;49.50;22.27;;;13.50;99.90;;;;;;5014824;28;20046;-85
2021/04/02 01:37:35;;;;;;;53.60;23.40;;;13.50;99.90;;;;;;5016745;28;20053;-85
2021/04/02 01:40:06;;;;;;;52.58;22.42;;;13.40;99.90;;;;;;5031914;28;20073;-86
2021/04/02 01:42:35;;;;;;;57.28;23.38;;;13.40;99.90;;;;;;5014249;28;20379;-85
2021/04/02 01:45:06;;;;;;;56.10;23.80;;;13.30;99.90;;;;;;5011551;28;20087;-85
2021/04/02 01:47:33;;;;;;;58.00;23.52;;;13.20;99.90;;;;;;5027964;28;20495;-85
2021/04/02 01:50:01;;;;;;;55.35;23.42;;;13.10;99.90;;;;;;5012109;28;20057;-85
2021/04/02 01:52:29;;;;;;;54.67;23.50;;;13.10;99.90;;;;;;5012550;28;20053;-85
2021/04/02 01:54:58;;;;;;;61.00;24.60;;;13.00;99.90;;;;;;5012158;28;20049;-85
2021/04/02 01:57:26;;;;;;;56.13;23.25;;;13.00;99.90;;;;;;5005774;28;20316;-85
2021/04/02 01:59:54;;;;;;;56.95;23.45;;;12.90;99.90;;;;;;5024490;28;20045;-85
2021/04/02 02:02:21;;;;;;;57.10;24.63;;;12.90;99.90;;;;;;5009520;28;20041;-85
2021/04/02 02:04:50;;;;;;;54.28;24.73;;;12.80;99.90;;;;;;5012313;28;20053;-86
2021/04/02 02:07:18;;;;;;;64.13;24.75;;;12.70;99.90;;;;;;5012561;28;20517;-85
2021/04/02 02:09:47;;;;;;;59.13;24.98;;;12.70;99.90;;;;;;5012954;28;20045;-85
2021/04/02 02:12:17;;;;;;;60.38;25.58;;;12.70;99.90;;;;;;5015672;28;20083;-85
2021/04/02 02:14:49;;;;;;;64.32;25.98;;;12.60;99.90;;;;;;5014116;28;20132;-85
2021/04/02 02:17:24;;;;;;;61.08;26.23;;;12.60;99.90;;;;;;5027755;28;20474;-85
2021/04/02 02:19:51;;;;;;;72.57;26.90;;;12.50;99.90;;;;;;5013061;28;20121;-85
2021/04/02 02:22:19;;;;;;;61.25;25.27;;;12.50;99.90;;;;;;5013646;28;20072;-85
2021/04/02 02:24:46;;;;;;;57.35;23.73;;;12.40;99.90;;;;;;5031461;28;20049;-85
2021/04/02 02:27:13;;;;;;;70.30;28.05;;;12.40;99.90;;;;;;5012385;28;20398;-84
2021/04/02 02:29:40;;;;;;;67.80;29.65;;;12.40;99.90;;;;;;5021077;28;20054;-84
2021/04/02 02:32:07;;;;;;;65.88;29.30;;;12.30;99.90;;;;;;5012823;28;20313;-85
2021/04/02 02:34:34;;;;;;;70.75;28.23;;;12.40;99.90;;;;;;5030187;28;20125;-85
2021/04/02 02:37:04;;;;;;;61.22;29.23;;;12.30;99.90;;;;;;5014828;28;20045;-85
2021/04/02 02:39:31;;;;;;;67.38;30.05;;;12.30;99.90;;;;;;5016195;28;20052;-85
2021/04/02 02:42:02;;;;;;;64.28;29.80;;;12.20;99.90;;;;;;5014297;28;20060;-85
2021/04/02 02:44:28;;;;;;;71.70;30.80;;;12.20;99.90;;;;;;5030398;28;20038;-85
2021/04/02 02:46:55;;;;;;;70.55;31.23;;;12.20;99.90;;;;;;5012547;28;20287;-85
2021/04/02 02:49:24;;;;;;;72.07;31.20;;;12.10;99.90;;;;;;5010644;28;20065;-85
2021/04/02 02:51:54;;;;;;;66.78;30.42;;;12.10;99.90;;;;;;5011894;28;20364;-85
2021/04/02 02:54:22;;;;;;;73.97;33.25;;;12.00;99.90;;;;;;5012475;28;20049;-85
2021/04/02 02:56:51;;;;;;;66.93;31.88;;;12.00;99.90;;;;;;5010739;28;20041;-85
2021/04/02 02:59:22;;;;;;;64.32;32.33;;;12.00;99.90;;;;;;5027715;28;20059;-85
2021/04/02 03:01:51;;;;;;;70.60;31.83;;;11.90;99.90;;;;;;5012991;28;20052;-84
2021/04/02 03:04:20;;;;;;;70.85;33.65;;;11.90;99.90;;;;;;5029951;28;20475;-84
2021/04/02 03:06:49;;;;;;;68.03;34.05;;;11.80;99.90;;;;;;5023028;28;20049;-85
2021/04/02 03:09:18;;;;;;;73.05;34.80;;;11.70;99.90;;;;;;5013458;28;20137;-84
2021/04/02 03:11:46;;;;;;;74.53;34.37;;;11.70;99.90;;;;;;5015727;28;20045;-85
2021/04/02 03:14:19;;;;;;;66.20;33.65;;;11.70;99.90;;;;;;5012050;28;20042;-85
2021/04/02 03:16:52;;;;;;;69.13;33.67;;;11.70;99.90;;;;;;5007894;28;20060;-85
2021/04/02 03:19:23;;;;;;;70.80;33.95;;;11.60;99.90;;;;;;5013008;28;20148;-85
2021/04/02 03:21:52;;;;;;;73.57;34.33;;;11.60;99.90;;;;;;5029207;28;20049;-85
2021/04/02 03:24:19;;;;;;;71.35;36.55;;;11.50;99.90;;;;;;5012571;28;20068;-85
2021/04/02 03:26:51;;;;;;;69.93;35.65;;;11.50;99.90;;;;;;5011247;28;20045;-85
2021/04/02 03:29:19;;;;;;;77.57;37.55;;;11.50;99.90;;;;;;5009099;28;20049;-85
2021/04/02 03:31:47;;;;;;;82.70;37.33;;;11.50;99.90;;;;;;5012035;28;23274;-85
2021/04/02 03:34:17;;;;;;;76.70;37.22;;;11.50;99.90;;;;;;5031569;28;20368;-85
2021/04/02 03:36:46;;;;;;;74.55;37.42;;;11.50;99.90;;;;;;5023839;28;20054;-85
2021/04/02 03:39:20;;;;;;;81.55;38.65;;;11.40;99.90;;;;;;5005167;28;20559;-85
2021/04/02 03:41:52;;;;;;;77.78;38.47;;;11.40;99.90;;;;;;5011323;28;20054;-85
2021/04/02 03:44:21;;;;;;;81.15;39.10;;;11.40;99.90;;;;;;5012179;28;20482;-84
2021/04/02 03:46:48;;;;;;;81.30;40.92;;;11.30;99.90;;;;;;5011688;28;20048;-85
2021/04/02 03:49:21;;;;;;;77.82;38.17;;;11.30;99.90;;;;;;5030351;28;20456;-85
2021/04/02 03:51:52;;;;;;;82.55;41.65;;;11.30;99.90;;;;;;5029611;28;20514;-84
2021/04/02 03:54:20;;;;;;;79.35;42.00;;;11.30;99.90;;;;;;5025095;28;20048;-84
2021/04/02 03:56:52;;;;;;;82.82;41.15;;;11.30;99.90;;;;;;5014422;28;20510;-84
2021/04/02 03:59:22;;;;;;;82.47;41.20;;;11.20;99.90;;;;;;5002598;28;20072;-85
2021/04/02 04:01:52;;;;;;;86.85;43.40;;;11.20;99.90;;;;;;5013205;28;20048;-85
2021/04/02 04:04:23;;;;;;;78.25;41.10;;;11.20;99.90;;;;;;5027811;28;20056;-85
2021/04/02 04:06:57;;;;;;;84.68;41.78;;;11.10;99.90;;;;;;5033221;28;20050;-85
2021/04/02 04:09:28;;;;;;;86.60;42.35;;;11.10;99.90;;;;;;5015069;28;20061;-84
2021/04/02 04:11:57;;;;;;;83.72;41.22;;;11.10;99.90;;;;;;5033860;28;20045;-85
2021/04/02 04:14:25;;;;;;;77.93;40.63;;;11.10;99.90;;;;;;5012474;28;20054;-85
2021/04/02 04:16:54;;;;;;;77.97;38.42;;;11.00;99.90;;;;;;5020336;28;20045;-85
2021/04/02 04:19:22;;;;;;;78.57;41.33;;;11.00;99.90;;;;;;5014572;28;20091;-84
2021/04/02 04:21:51;;;;;;;82.82;39.92;;;10.90;99.90;;;;;;5032940;28;20076;-84
2021/04/02 04:24:19;;;;;;;72.03;39.47;;;10.90;99.90;;;;;;5015675;28;20046;-84
2021/04/02 04:26:47;;;;;;;;;;;10.90;99.90;;;;;;5012957;28;20077;-85
2021/04/02 04:29:21;;;;;;;77.60;38.40;;;10.90;99.90;;;;;;5010198;28;19928;-85
2021/04/02 04:31:48;;;;;;;78.75;39.45;;;10.80;99.90;;;;;;5016010;28;20055;-84
2021/04/02 04:34:17;;;;;;;74.50;36.95;;;10.80;99.90;;;;;;5014818;28;20053;-84
2021/04/02 04:36:45;;;;;;;70.57;36.35;;;10.80;99.90;;;;;;5016026;28;20584;-87
2021/04/02 04:39:13;;;;;;;77.78;37.17;;;10.70;99.90;;;;;;5014173;28;20392;-85
2021/04/02 04:41:42;;;;;;;69.73;35.97;;;10.70;99.90;;;;;;5017032;28;20045;-88
2021/04/02 04:44:10;;;;;;;67.65;34.00;;;10.70;99.90;;;;;;5011571;28;20050;-88
2021/04/02 04:46:36;;;;;;;66.77;33.70;;;10.70;99.90;;;;;;5013685;28;20049;-84
2021/04/02 04:49:03;;;;;;;70.35;35.30;;;10.70;99.90;;;;;;5016209;28;20065;-83
2021/04/02 04:51:33;;;;;;;65.50;33.88;;;10.70;99.90;;;;;;5013652;28;20053;-84
2021/04/02 04:54:00;;;;;;;69.35;34.25;;;10.60;99.90;;;;;;5013609;28;20037;-84
2021/04/02 04:56:29;;;;;;;70.35;33.00;;;10.60;99.90;;;;;;5016008;28;20124;-84
2021/04/02 04:59:00;;;;;;;74.65;32.35;;;10.60;99.90;;;;;;5011626;28;20072;-86
2021/04/02 05:01:30;;;;;;;65.80;31.92;;;10.60;99.90;;;;;;5008347;28;20053;-86
2021/04/02 05:03:58;;;;;;;69.95;31.15;;;10.60;99.90;;;;;;5008175;28;20060;-86
2021/04/02 05:06:25;;;;;;;67.03;30.67;;;10.50;99.90;;;;;;5030737;28;20041;-86
2021/04/02 05:08:53;;;;;;;60.03;29.23;;;10.50;99.90;;;;;;5030779;28;20060;-86
2021/04/02 05:11:23;;;;;;;70.77;31.67;;;10.50;99.90;;;;;;5015459;28;20033;-84
2021/04/02 05:13:52;;;;;;;65.70;30.25;;;10.50;99.90;;;;;;5012107;28;20049;-84
2021/04/02 05:16:21;;;;;;;63.25;31.73;;;10.50;99.90;;;;;;5014038;28;20037;-87
2021/04/02 05:18:49;;;;;;;66.57;28.27;;;10.40;99.90;;;;;;5014002;28;20061;-86
2021/04/02 05:21:15;;;;;;;56.45;27.85;;;10.40;99.90;;;;;;5013885;28;20491;-87
2021/04/02 05:23:42;;;;;;;57.33;27.80;;;10.30;99.90;;;;;;5015916;28;20099;-86
2021/04/02 05:26:13;;;;;;;51.47;25.05;;;10.30;99.90;;;;;;5014730;28;20041;-86
2021/04/02 05:28:40;;;;;;;58.25;25.08;;;10.30;99.90;;;;;;5030792;28;20049;-86
2021/04/02 05:31:07;;;;;;;57.08;26.25;;;10.30;99.90;;;;;;5014522;28;20490;-86
2021/04/02 05:33:34;;;;;;;59.70;25.63;;;10.30;99.90;;;;;;5006451;28;20052;-86
2021/04/02 05:36:01;;;;;;;61.63;25.25;;;10.30;99.90;;;;;;5012546;28;20052;-86
2021/04/02 05:38:27;;;;;;;54.22;24.98;;;10.20;99.90;;;;;;5007852;28;20042;-85
2021/04/02 05:41:12;;;;;;;52.38;24.48;;;10.20;99.90;;;;;;5023677;28;20064;-85
2021/04/02 05:43:54;;;;;;;54.05;24.13;;;10.20;99.90;;;;;;5014207;28;20494;-83
2021/04/02 05:46:24;;;;;;;55.50;24.27;;;10.20;99.90;;;;;;5030062;28;20053;-85
2021/04/02 05:49:03;;;;;;;53.88;24.95;;;10.20;99.90;;;;;;5009592;28;20069;-84
2021/04/02 05:51:30;;;;;;;;;;;10.10;99.90;;;;;;5012519;28;20041;-86
2021/04/02 05:53:59;;;;;;;47.67;23.42;;;10.10;99.90;;;;;;5014352;28;20266;-86
2021/04/02 05:56:26;;;;;;;55.67;25.13;;;10.10;99.90;;;;;;5009696;28;20042;-86
2021/04/02 05:58:54;;;;;;;53.90;24.23;;;10.10;99.90;;;;;;5012348;28;20064;-86
2021/04/02 06:01:20;;;;;;;49.60;22.83;;;10.10;99.90;;;;;;5029688;28;20479;-86
2021/04/02 06:03:47;;;;;;;46.50;23.52;;;10.00;99.90;;;;;;5013258;28;20045;-86
2021/04/02 06:06:14;;;;;;;52.03;24.48;;;10.00;99.90;;;;;;5011750;28;20056;-85
2021/04/02 06:08:46;;;;;;;54.05;22.98;;;10.00;99.90;;;;;;5010944;28;20487;-86
2021/04/02 06:11:13;;;;;;;55.92;24.00;;;10.00;99.90;;;;;;5013278;28;20049;-86
2021/04/02 06:13:40;;;;;;;51.33;23.65;;;10.00;99.90;;;;;;5030003;28;20046;-85
2021/04/02 06:16:07;;;;;;;52.45;22.75;;;10.00;99.90;;;;;;5014003;28;20041;-85
2021/04/02 06:18:38;;;;;;;48.00;22.55;;;10.00;99.90;;;;;;5011335;28;20529;-85
2021/04/02 06:21:05;;;;;;;57.38;23.33;;;10.00;99.90;;;;;;5009078;28;20112;-85
2021/04/02 06:23:34;;;;;;;54.38;23.10;;;10.00;99.90;;;;;;5029229;28;20471;-85
2021/04/02 06:26:12;;;;;;;54.78;23.58;;;10.00;99.90;;;;;;5015307;28;20053;-85
2021/04/02 06:28:41;;;;;;;63.70;24.58;;;10.10;99.90;;;;;;5012038;28;20049;-85
2021/04/02 06:31:11;;;;;;;49.60;22.80;;;10.10;99.90;;;;;;5011072;28;20054;-85
2021/04/02 06:33:50;;;;;;;48.88;22.45;;;10.10;99.90;;;;;;5027948;28;20046;-86
2021/04/02 06:36:29;;;;;;;58.55;23.30;;;10.10;99.90;;;;;;5006102;28;20045;-87
2021/04/02 06:38:58;;;;;;;47.80;21.40;;;10.10;99.90;;;;;;5029589;28;20048;-85
2021/04/02 06:41:26;;;;;;;50.00;22.00;;;10.10;99.90;;;;;;5009937;28;20050;-84
2021/04/02 06:43:59;;;;;;;50.90;21.50;;;10.10;99.90;;;;;;5029711;28;20041;-85
2021/04/02 06:46:29;;;;;;;50.53;22.30;;;10.10;99.90;;;;;;5027225;28;20060;-85
2021/04/02 06:49:08;;;;;;;48.78;21.50;;;10.20;99.90;;;;;;5012275;28;20526;-85
2021/04/02 06:51:40;;;;;;;44.10;21.30;;;10.20;99.90;;;;;;5013493;28;20506;-85
2021/04/02 06:54:24;;;;;;;49.88;22.90;;;10.20;99.90;;;;;;5008048;28;20060;-85
2021/04/02 06:57:09;;;;;;;53.80;21.38;;;10.20;99.90;;;;;;5005812;28;20041;-87
2021/04/02 06:59:36;;;;;;;44.83;20.92;;;10.30;99.90;;;;;;5009726;28;20057;-85
2021/04/02 07:02:04;;;;;;;51.00;21.17;;;10.30;99.90;;;;;;5012607;28;20467;-84
2021/04/02 07:04:32;;;;;;;45.33;20.73;;;10.40;99.90;;;;;;5008418;28;20048;-85
2021/04/02 07:07:02;;;;;;;45.38;21.17;;;10.40;99.90;;;;;;5009971;28;20052;-85
2021/04/02 07:09:33;;;;;;;41.03;20.67;;;10.50;99.90;;;;;;5008502;28;20048;-85
2021/04/02 07:12:01;;;;;;;46.83;20.05;;;10.50;99.90;;;;;;5007010;28;20053;-85
2021/04/02 07:14:31;;;;;;;47.65;19.70;;;10.60;99.90;;;;;;5010079;28;20053;-85
2021/04/02 07:16:58;;;;;;;43.22;19.75;;;10.60;99.90;;;;;;5011697;28;20042;-85
2021/04/02 07:19:25;;;;;;;41.97;19.88;;;10.70;99.90;;;;;;5011076;28;20486;-85
2021/04/02 07:21:53;;;;;;;47.20;19.52;;;10.70;99.90;;;;;;5011411;28;20056;-85
2021/04/02 07:24:21;;;;;;;41.35;19.40;;;10.80;99.90;;;;;;5008573;28;20045;-85
2021/04/02 07:26:48;;;;;;;44.95;19.58;;;10.80;99.90;;;;;;5012349;28;20077;-85
2021/04/02 07:29:17;;;;;;;47.28;19.20;;;10.90;99.90;;;;;;5026303;28;20056;-85
2021/04/02 07:31:45;;;;;;;41.45;18.20;;;11.00;99.90;;;;;;5014112;28;20052;-85
2021/04/02 07:34:13;;;;;;;;;;;11.00;99.90;;;;;;5025738;28;20049;-85
2021/04/02 07:36:41;;;;;;;41.58;17.85;;;11.10;99.90;;;;;;5010723;28;19927;-84
2021/04/02 07:39:08;;;;;;;42.28;17.95;;;11.10;99.90;;;;;;5024163;28;20071;-85
2021/04/02 07:41:52;;;;;;;42.92;18.70;;;11.20;99.90;;;;;;5023689;28;20387;-85
2021/04/02 07:44:19;;;;;;;38.38;17.30;;;11.30;99.90;;;;;;5005477;28;20141;-85
2021/04/02 07:47:08;;;;;;;45.72;18.05;;;11.40;99.90;;;;;;5028368;28;20563;-85
2021/04/02 07:49:58;;;;;;;49.90;18.67;;;11.50;99.90;;;;;;5010069;28;20420;-84
2021/04/02 07:52:33;;;;;;;43.58;18.20;;;11.60;99.90;;;;;;5025241;28;20046;-85
2021/04/02 07:55:18;;;;;;;40.75;18.40;;;11.60;99.90;;;;;;5015508;28;20392;-84
2021/04/02 07:57:58;;;;;;;42.95;18.52;;;11.70;99.90;;;;;;5011409;28;20486;-84
2021/04/02 08:00:27;;;;;;;51.70;18.55;;;11.80;99.90;;;;;;5026464;28;20133;-85
2021/04/02 08:03:09;;;;;;;39.30;17.42;;;11.90;99.90;;;;;;5010579;28;20037;-84
2021/04/02 08:05:37;;;;;;;40.83;17.90;;;11.90;99.90;;;;;;5010338;28;20060;-85
2021/04/02 08:08:07;;;;;;;42.13;17.92;;;12.00;99.90;;;;;;5012568;28;20045;-85
2021/04/02 08:10:34;;;;;;;39.42;17.10;;;12.10;99.90;;;;;;5009259;28;20054;-84
2021/04/02 08:13:16;;;;;;;48.30;16.85;;;12.10;99.90;;;;;;5023990;28;20077;-85
2021/04/02 08:15:42;;;;;;;37.70;16.65;;;12.10;99.90;;;;;;5007947;28;20050;-84
2021/04/02 08:18:27;;;;;;;42.05;17.13;;;12.20;99.90;;;;;;5012741;28;20057;-85
2021/04/02 08:20:55;;;;;;;33.47;16.38;;;12.30;99.90;;;;;;4993463;28;20045;-84
2021/04/02 08:23:27;;;;;;;35.70;16.48;;;12.40;99.90;;;;;;5005606;28;20060;-84
2021/04/02 08:25:55;;;;;;;32.88;16.42;;;12.40;99.90;;;;;;5002088;28;20045;-85
2021/04/02 08:28:25;;;;;;;56.70;18.42;;;12.50;99.90;;;;;;5019066;28;20049;-84
2021/04/02 08:30:54;;;;;;;40.30;15.98;;;12.50;99.90;;;;;;5003917;28;20084;-85
2021/04/02 08:33:20;;;;;;;30.10;15.55;;;12.60;99.90;;;;;;4998606;28;20488;-84
2021/04/02 08:35:48;;;;;;;37.00;15.52;;;12.60;99.90;;;;;;4992736;28;20049;-85
2021/04/02 08:38:14;;;;;;;40.55;16.33;;;12.60;99.90;;;;;;5006003;28;20038;-85
2021/04/02 08:40:41;;;;;;;33.85;14.80;;;12.70;99.90;;;;;;4990580;28;20057;-85
2021/04/02 08:43:12;;;;;;;42.13;16.17;;;12.80;99.90;;;;;;4991639;28;20050;-85
2021/04/02 08:45:58;;;;;;;33.78;14.48;;;12.80;99.90;;;;;;5012436;28;20116;-85
2021/04/02 08:48:25;;;;;;;39.30;14.13;;;12.90;99.90;;;;;;5006200;28;20045;-85
2021/04/02 08:50:52;;;;;;;29.50;13.40;;;12.90;99.90;;;;;;5002481;28;20144;-85
2021/04/02 08:53:18;;;;;;;38.88;13.98;;;13.00;99.90;;;;;;4994492;28;20052;-85
2021/04/02 08:55:45;;;;;;;39.53;14.88;;;13.10;99.90;;;;;;5013712;28;20046;-85
2021/04/02 08:58:13;;;;;;;30.65;13.68;;;13.20;99.90;;;;;;4994320;28;20499;-85
2021/04/02 09:00:40;;;;;;;42.50;13.30;;;13.30;99.90;;;;;;4991898;28;20050;-86
2021/04/02 09:03:07;;;;;;;34.60;13.63;;;13.40;99.90;;;;;;5000736;28;20487;-85
2021/04/02 09:05:34;;;;;;;30.27;12.77;;;13.40;99.90;;;;;;5008533;28;20041;-84
2021/04/02 09:08:00;;;;;;;30.83;11.93;;;13.50;99.90;;;;;;4996306;28;20049;-85
2021/04/02 09:10:27;;;;;;;31.55;12.70;;;13.50;99.90;;;;;;4997967;28;20088;-85
2021/04/02 09:12:54;;;;;;;31.15;11.95;;;13.60;99.90;;;;;;5005322;28;20053;-85
2021/04/02 09:15:28;;;;;;;32.30;12.13;;;13.70;99.90;;;;;;5004625;28;20053;-85
2021/04/02 09:18:12;;;;;;;32.72;11.95;;;13.80;99.90;;;;;;4992622;28;20052;-85
2021/04/02 09:20:39;;;;;;;31.90;12.23;;;13.70;99.90;;;;;;4997897;28;20057;-84
2021/04/02 09:23:08;;;;;;;32.70;10.15;;;13.80;99.90;;;;;;5016392;28;20044;-85
2021/04/02 09:25:39;;;;;;;34.40;11.00;;;13.80;99.90;;;;;;4995477;28;20678;-85
2021/04/02 09:28:06;;;;;;;36.38;11.25;;;13.90;99.90;;;;;;5017076;28;20145;-85
2021/04/02 09:30:33;;;;;;;33.53;11.35;;;14.00;99.90;;;;;;4998635;28;20046;-84
2021/04/02 09:33:00;;;;;;;34.58;11.82;;;14.10;99.90;;;;;;5010952;28;20077;-83
2021/04/02 09:35:26;;;;;;;31.38;11.50;;;14.10;99.90;;;;;;4998217;28;20052;-83
2021/04/02 09:37:53;;;;;;;32.15;10.70;;;14.20;99.90;;;;;;4995131;28;20038;-84
2021/04/02 09:40:27;;;;;;;31.23;11.15;;;14.20;99.90;;;;;;4996012;28;20053;-85
2021/04/02 09:42:54;;;;;;;34.15;10.70;;;14.20;99.90;;;;;;4994490;28;20049;-85
2021/04/02 09:45:25;;;;;;;34.95;10.48;;;14.30;99.90;;;;;;4994983;28;20054;-85
2021/04/02 09:47:52;;;;;;;33.53;9.73;;;14.40;99.90;;;;;;4985401;28;20053;-84
2021/04/02 09:50:18;;;;;;;28.35;9.68;;;14.50;99.90;;;;;;4993829;28;20046;-85
2021/04/02 09:52:46;;;;;;;29.88;10.50;;;14.50;99.90;;;;;;4993189;28;20495;-85
2021/04/02 09:55:14;;;;;;;33.43;10.33;;;14.60;99.90;;;;;;4995305;28;20057;-85
2021/04/02 09:57:40;;;;;;;28.58;9.18;;;14.80;99.90;;;;;;4993604;28;20435;-85
2021/04/02 10:00:09;;;;;;;27.67;10.27;;;14.90;99.90;;;;;;5004424;28;20053;-86
2021/04/02 10:02:36;;;;;;;36.50;9.82;;;15.00;99.90;;;;;;4989419;28;20487;-85
2021/04/02 10:05:04;;;;;;;26.10;9.23;;;15.10;99.90;;;;;;5010419;28;20046;-85
2021/04/02 10:07:31;;;;;;;27.45;10.07;;;15.20;99.90;;;;;;5009612;28;20046;-83
2021/04/02 10:09:57;;;;;;;27.80;9.32;;;15.30;99.90;;;;;;4995412;28;20124;-85
2021/04/02 10:12:24;;;;;;;22.27;8.57;;;15.30;99.90;;;;;;4993963;28;20526;-85
2021/04/02 10:14:50;;;;;;;21.10;8.40;;;15.40;99.90;;;;;;5009146;28;20482;-85
2021/04/02 10:17:17;;;;;;;27.35;8.85;;;15.50;99.90;;;;;;5011165;28;20395;-85
2021/04/02 10:19:43;;;;;;;28.95;9.02;;;15.60;99.90;;;;;;5010966;28;20061;-85
2021/04/02 10:22:10;;;;;;;27.63;8.52;;;15.60;99.90;;;;;;5024212;28;20048;-85
2021/04/02 10:24:36;;;;;;;26.98;7.97;;;15.70;99.90;;;;;;5009477;28;20391;-84
2021/04/02 10:27:03;;;;;;;27.65;8.43;;;15.80;99.90;;;;;;5013312;28;20057;-85
2021/04/02 10:29:31;;;;;;;25.67;8.60;;;15.90;99.90;;;;;;5007376;28;20041;-85
2021/04/02 10:31:57;;;;;;;23.85;7.82;;;15.80;99.80;;;;;;5011495;28;20042;-85
2021/04/02 10:34:24;;;;;;;27.38;7.65;;;15.80;99.60;;;;;;5012119;28;20045;-85
2021/04/02 10:36:52;;;;;;;27.20;8.35;;;15.90;99.70;;;;;;5021762;28;20132;-85
2021/04/02 10:39:18;;;;;;;23.55;7.88;;;15.90;99.50;;;;;;5030213;28;20053;-85
2021/04/02 10:41:45;;;;;;;29.02;7.97;;;16.00;99.40;;;;;;5011991;28;20083;-85
2021/04/02 10:44:11;;;;;;;26.65;7.70;;;16.00;99.10;;;;;;5012227;28;20048;-84
2021/04/02 10:46:38;;;;;;;26.10;7.00;;;15.90;98.70;;;;;;5016631;28;20064;-85
2021/04/02 10:49:04;;;;;;;34.65;7.43;;;15.90;98.50;;;;;;5030358;28;20041;-85
2021/04/02 10:51:31;;;;;;;23.20;6.32;;;15.90;98.30;;;;;;5028466;28;20041;-85
2021/04/02 10:54:03;;;;;;;23.15;6.97;;;16.00;98.60;;;;;;5019142;28;20053;-84
2021/04/02 10:56:31;;;;;;;23.65;6.75;;;16.00;98.10;;;;;;5006013;28;20497;-83
2021/04/02 10:58:58;;;;;;;23.83;6.67;;;16.00;98.00;;;;;;5028442;28;20061;-83
2021/04/02 11:01:24;;;;;;;21.15;6.43;;;16.00;98.10;;;;;;5028263;28;20045;-85
2021/04/02 11:03:51;;;;;;;21.13;6.40;;;16.10;97.80;;;;;;5029249;28;20069;-86
2021/04/02 11:06:17;;;;;;;22.83;6.32;;;16.10;97.70;;;;;;5006717;28;20046;-85
2021/04/02 11:08:44;;;;;;;22.70;6.25;;;16.10;97.90;;;;;;5028277;28;20394;-83
2021/04/02 11:11:11;;;;;;;20.90;5.38;;;16.20;97.90;;;;;;5011368;28;20037;-84
2021/04/02 11:13:37;;;;;;;21.55;6.57;;;16.20;97.50;;;;;;5029028;28;20060;-82
2021/04/02 11:16:04;;;;;;;23.15;5.70;;;16.20;97.60;;;;;;5028759;28;20052;-85
2021/04/02 11:18:31;;;;;;;23.92;5.97;;;16.30;98.10;;;;;;5008044;28;20042;-83
2021/04/02 11:20:58;;;;;;;16.73;4.57;;;16.50;98.50;;;;;;5006953;28;20060;-82
2021/04/02 11:23:26;;;;;;;19.40;4.93;;;16.60;97.80;;;;;;5009167;28;20045;-82
2021/04/02 11:25:54;;;;;;;17.52;5.03;;;16.60;97.20;;;;;;5009702;28;20041;-82
2021/04/02 11:28:21;;;;;;;19.10;5.07;;;16.70;97.10;;;;;;5021199;28;20048;-83
2021/04/02 11:30:48;;;;;;;19.60;4.95;;;16.70;96.50;;;;;;5017126;28;20072;-83
2021/04/02 11:33:14;;;;;;;19.52;4.82;;;16.80;96.60;;;;;;5011864;28;20052;-83
2021/04/02 11:35:40;;;;;;;17.70;5.03;;;16.80;96.50;;;;;;5011493;28;20116;-83
2021/04/02 11:38:07;;;;;;;23.88;5.18;;;16.80;95.90;;;;;;5013230;28;20048;-83
2021/04/02 11:40:34;;;;;;;18.88;4.18;;;16.90;96.20;;;;;;5024093;28;20041;-83
2021/04/02 11:43:01;;;;;;;22.75;5.93;;;16.90;96.50;;;;;;5013216;28;20045;-83
2021/04/02 11:45:27;;;;;;;18.77;4.97;;;16.90;96.10;;;;;;5010984;28;20034;-82
2021/04/02 11:47:54;;;;;;;16.73;5.43;;;16.90;96.10;;;;;;5009839;28;20060;-82
2021/04/02 11:50:20;;;;;;;21.15;5.88;;;16.90;96.20;;;;;;5010696;28;20045;-83
2021/04/02 11:52:47;;;;;;;18.55;6.15;;;17.00;96.10;;;;;;5009926;28;20426;-82
2021/04/02 11:55:14;;;;;;;18.08;4.97;;;16.90;95.80;;;;;;5026047;28;20053;-82
2021/04/02 11:57:40;;;;;;;17.30;5.18;;;17.00;96.10;;;;;;5025993;28;20053;-82
2021/04/02 12:00:11;;;;;;;19.17;4.38;;;17.00;95.70;;;;;;5021321;28;20050;-82
2021/04/02 12:02:38;;;;;;;18.25;3.92;;;17.10;95.30;;;;;;5026581;28;20053;-83
2021/04/02 12:05:06;;;;;;;21.65;4.80;;;17.10;95.00;;;;;;5025413;28;20052;-82
2021/04/02 12:07:34;;;;;;;19.90;4.72;;;17.20;95.10;;;;;;5010597;28;20510;-83
2021/04/02 12:10:01;;;;;;;17.20;4.33;;;17.30;95.30;;;;;;5026767;28;20056;-82
2021/04/02 12:12:29;;;;;;;17.73;4.68;;;17.30;94.60;;;;;;5027428;28;20099;-83
2021/04/02 12:14:55;;;;;;;14.68;3.78;;;17.30;94.50;;;;;;5006030;28;20049;-82
2021/04/02 12:17:22;;;;;;;22.75;4.40;;;17.30;94.20;;;;;;5011853;28;20041;-82
2021/04/02 12:19:48;;;;;;;14.82;3.70;;;17.30;94.40;;;;;;5010939;28;20124;-83
2021/04/02 12:22:15;;;;;;;18.08;4.30;;;17.30;93.90;;;;;;5012712;28;20050;-82
2021/04/02 12:24:41;;;;;;;18.48;4.20;;;17.30;93.80;;;;;;5006102;28;20049;-83
2021/04/02 12:27:08;;;;;;;11.88;3.90;;;17.40;94.00;;;;;;5009358;28;20045;-83
2021/04/02 12:29:34;;;;;;;23.25;4.72;;;17.50;94.10;;;;;;5011667;28;20041;-82
2021/04/02 12:32:02;;;;;;;18.40;4.75;;;17.50;93.90;;;;;;5032058;28;20083;-83
2021/04/02 12:34:29;;;;;;;14.68;3.67;;;17.50;93.70;;;;;;5031291;28;20053;-83
2021/04/02 12:36:56;;;;;;;14.50;3.55;;;17.60;93.60;;;;;;5003955;28;20046;-82
2021/04/02 12:39:22;;;;;;;15.65;4.20;;;17.70;93.30;;;;;;5027507;28;20033;-82
2021/04/02 12:41:48;;;;;;;19.27;4.20;;;17.70;93.20;;;;;;5005830;28;20053;-83